Time;durP1;ratioP1;P1;durP2;ratioP2;P2;SDS_P1;SDS_P2;PMS_P1;PMS_P2;Temp;Humidity;BMP_temperature;BMP_pressure;BME280_temperature;BME280_humidity;BME280_pressure;Samples;Min_cycle;Max_cycle;Signal;HPM_P1;HPM_P2
2022/05/09 00:00:07;;;;;;;14.13;10.32;;;;;;;;;;4961773;28;20046;-71
2022/05/09 00:02:37;;;;;;;12.48;10.82;;;;;;;;;;4961845;28;20035;-71
2022/05/09 00:05:03;;;;;;;16.52;11.05;;;;;;;;;;4962226;28;20042;-71
2022/05/09 00:07:29;;;;;;;15.32;10.80;;;;;;;;;;4962148;28;20031;-71
2022/05/09 00:09:55;;;;;;;12.07;10.77;;;;;;;;;;4962039;28;20131;-71
2022/05/09 00:12:20;;;;;;;16.38;12.00;;;;;;;;;;4960649;28;20038;-71
2022/05/09 00:14:45;;;;;;;15.60;11.68;;;;;;;;;;4961904;28;20114;-71
2022/05/09 00:17:11;;;;;;;13.68;11.20;;;;;;;;;;4961779;28;20658;-71
2022/05/09 00:19:36;;;;;;;17.38;11.20;;;;;;;;;;4965082;28;20042;-71
2022/05/09 00:22:02;;;;;;;18.45;12.02;;;;;;;;;;4965262;28;20072;-71
2022/05/09 00:24:29;;;;;;;16.67;12.85;;;;;;;;;;4964833;28;20174;-71
2022/05/09 00:26:55;;;;;;;18.05;13.13;;;;;;;;;;4965370;28;20157;-71
2022/05/09 00:29:21;;;;;;;18.15;12.48;;;;;;;;;;4965312;28;20039;-71
2022/05/09 00:31:49;;;;;;;15.95;12.00;;;;;;;;;;4964782;28;20045;-71
2022/05/09 00:34:19;;;;;;;15.07;11.85;;;;;;;;;;4964503;28;20038;-71
2022/05/09 00:36:46;;;;;;;19.77;12.10;;;;;;;;;;4965236;28;20086;-71
2022/05/09 00:39:13;;;;;;;12.75;9.77;;;;;;;;;;4964590;28;20060;-71
2022/05/09 00:41:42;;;;;;;18.15;11.52;;;;;;;;;;4964708;28;20467;-72
2022/05/09 00:44:11;;;;;;;13.85;10.88;;;;;;;;;;4964508;28;20047;-71
2022/05/09 00:46:38;;;;;;;13.23;11.25;;;;;;;;;;4964849;28;20117;-72
2022/05/09 00:49:18;;;;;;;13.98;11.65;;;;;;;;;;4964804;28;20050;-71
2022/05/09 00:52:08;;;;;;;15.65;12.55;;;;;;;;;;4964266;28;20129;-70
2022/05/09 00:54:40;;;;;;;17.27;11.23;;;;;;;;;;4964538;28;20043;-70
2022/05/09 00:57:18;;;;;;;13.77;10.98;;;;;;;;;;4963922;28;20046;-72
2022/05/09 00:59:44;;;;;;;15.95;10.98;;;;;;;;;;4964587;28;20042;-71
2022/05/09 01:02:14;;;;;;;14.80;11.93;;;;;;;;;;4964019;28;20097;-71
2022/05/09 01:04:57;;;;;;;17.27;12.38;;;;;;;;;;4964498;28;20066;-72
2022/05/09 01:07:24;;;;;;;14.50;12.00;;;;;;;;;;4964133;28;20050;-71
2022/05/09 01:09:49;;;;;;;14.32;11.40;;;;;;;;;;4964166;28;20038;-71
2022/05/09 01:12:24;;;;;;;16.42;12.88;;;;;;;;;;4963920;28;20083;-71
2022/05/09 01:14:49;;;;;;;16.63;12.98;;;;;;;;;;4964295;28;20034;-72
2022/05/09 01:17:16;;;;;;;18.55;13.35;;;;;;;;;;4963542;28;20531;-72
2022/05/09 01:19:44;;;;;;;19.40;14.07;;;;;;;;;;4963998;28;20511;-71
2022/05/09 01:22:17;;;;;;;18.90;13.70;;;;;;;;;;4963628;28;20499;-72
2022/05/09 01:24:43;;;;;;;16.75;12.40;;;;;;;;;;4964290;28;20484;-71
2022/05/09 01:27:09;;;;;;;18.60;13.57;;;;;;;;;;4964269;28;20039;-71
2022/05/09 01:29:59;;;;;;;18.70;14.50;;;;;;;;;;4962440;28;20031;-71
2022/05/09 01:32:36;;;;;;;20.23;13.68;;;;;;;;;;4938347;28;20035;-71
2022/05/09 01:35:07;;;;;;;20.13;13.90;;;;;;;;;;4963977;28;20065;-71
2022/05/09 01:37:36;;;;;;;19.43;14.70;;;;;;;;;;4964181;28;20038;-71
2022/05/09 01:40:02;;;;;;;19.35;14.57;;;;;;;;;;4963376;28;20089;-71
2022/05/09 01:42:27;;;;;;;19.85;14.82;;;;;;;;;;4963109;28;20039;-71
2022/05/09 01:44:53;;;;;;;19.70;14.90;;;;;;;;;;4964079;28;20071;-72
2022/05/09 01:50:02;;;;;;;21.02;15.38;;;;;;;;;;4964239;28;20592;-71
2022/05/09 01:52:28;;;;;;;21.92;15.32;;;;;;;;;;4962432;28;20738;-72
2022/05/09 01:54:53;;;;;;;22.35;16.73;;;;;;;;;;4963802;28;20057;-72
2022/05/09 01:57:19;;;;;;;24.73;17.40;;;;;;;;;;4963842;28;20063;-72
2022/05/09 01:59:44;;;;;;;25.02;16.95;;;;;;;;;;4963447;28;20665;-71
2022/05/09 02:02:14;;;;;;;24.35;17.45;;;;;;;;;;4962201;28;20698;-71
2022/05/09 02:04:40;;;;;;;25.25;17.45;;;;;;;;;;4963316;28;20046;-71
2022/05/09 02:07:10;;;;;;;27.35;18.92;;;;;;;;;;4963734;28;20074;-72
2022/05/09 02:09:41;;;;;;;28.33;19.38;;;;;;;;;;4963489;28;20037;-71
2022/05/09 02:12:08;;;;;;;20.13;13.43;;;;;;;;;;4962437;28;20046;-72
2022/05/09 02:14:34;;;;;;;14.30;11.40;;;;;;;;;;4963077;28;20129;-72
2022/05/09 02:16:59;;;;;;;15.30;11.85;;;;;;;;;;4962937;28;20100;-71
2022/05/09 02:19:26;;;;;;;17.98;14.15;;;;;;;;;;4963370;28;20035;-71
2022/05/09 02:21:52;;;;;;;21.77;15.52;;;;;;;;;;4962630;28;20068;-71
2022/05/09 02:24:17;;;;;;;20.35;14.40;;;;;;;;;;4962571;28;21054;-71
2022/05/09 02:26:43;;;;;;;19.92;14.00;;;;;;;;;;4962999;28;20188;-71
2022/05/09 02:29:09;;;;;;;19.08;13.85;;;;;;;;;;4962739;28;20030;-72
2022/05/09 02:31:34;;;;;;;20.75;16.10;;;;;;;;;;4962454;28;20388;-71
2022/05/09 02:34:01;;;;;;;26.42;18.23;;;;;;;;;;4962998;28;20043;-71
2022/05/09 02:36:27;;;;;;;29.48;19.70;;;;;;;;;;4962269;28;20034;-71
2022/05/09 02:38:52;;;;;;;32.72;21.00;;;;;;;;;;4962676;28;20050;-71
2022/05/09 02:41:18;;;;;;;25.92;18.13;;;;;;;;;;4962838;28;20047;-71
2022/05/09 02:43:43;;;;;;;26.30;18.27;;;;;;;;;;4962195;28;20073;-71
2022/05/09 02:46:10;;;;;;;26.48;18.83;;;;;;;;;;4962056;28;20109;-71
2022/05/09 02:48:37;;;;;;;31.15;20.30;;;;;;;;;;4963911;28;20481;-71
2022/05/09 02:51:07;;;;;;;28.35;19.83;;;;;;;;;;4946077;28;20043;-71
2022/05/09 02:53:34;;;;;;;25.70;18.38;;;;;;;;;;4962164;28;20047;-71
2022/05/09 02:56:00;;;;;;;26.17;17.05;;;;;;;;;;4962472;28;20139;-71
2022/05/09 02:58:26;;;;;;;20.00;15.95;;;;;;;;;;4961876;28;20031;-71
2022/05/09 03:00:51;;;;;;;23.00;17.15;;;;;;;;;;4962454;28;20047;-71
2022/05/09 03:06:01;;;;;;;19.48;15.38;;;;;;;;;;4962661;28;20062;-71
2022/05/09 03:08:26;;;;;;;25.55;18.38;;;;;;;;;;4961773;28;20034;-70
2022/05/09 03:10:52;;;;;;;22.33;16.10;;;;;;;;;;4962232;28;20144;-71
2022/05/09 03:13:18;;;;;;;19.33;14.05;;;;;;;;;;4961581;28;20042;-70
2022/05/09 03:15:45;;;;;;;22.65;15.10;;;;;;;;;;4962017;28;20096;-71
2022/05/09 03:18:12;;;;;;;21.35;16.02;;;;;;;;;;4961810;28;20484;-71
2022/05/09 03:20:38;;;;;;;17.77;13.93;;;;;;;;;;4961763;28;20035;-71
2022/05/09 03:23:06;;;;;;;19.20;14.07;;;;;;;;;;4944653;28;20034;-71
2022/05/09 03:25:33;;;;;;;18.35;14.88;;;;;;;;;;4962349;28;20035;-71
2022/05/09 03:27:59;;;;;;;25.05;15.23;;;;;;;;;;4962643;28;20034;-71
2022/05/09 03:30:24;;;;;;;19.80;14.05;;;;;;;;;;4961042;28;20034;-71
2022/05/09 03:32:52;;;;;;;17.45;13.15;;;;;;;;;;4958785;28;20034;-70
2022/05/09 03:35:18;;;;;;;61.20;14.68;;;;;;;;;;4961881;28;20038;-70
2022/05/09 03:37:43;;;;;;;33.05;14.73;;;;;;;;;;4962071;28;20475;-70
2022/05/09 03:40:09;;;;;;;90.40;11.43;;;;;;;;;;4959209;28;20053;-71
2022/05/09 03:42:35;;;;;;;181.23;13.07;;;;;;;;;;4961137;28;20070;-71
2022/05/09 03:45:00;;;;;;;158.45;11.77;;;;;;;;;;4944525;28;20058;-71
2022/05/09 03:47:26;;;;;;;167.70;12.00;;;;;;;;;;4961926;28;20476;-70
2022/05/09 03:49:54;;;;;;;215.05;12.32;;;;;;;;;;4962202;28;20078;-70
2022/05/09 03:52:20;;;;;;;74.72;11.82;;;;;;;;;;4960685;28;20054;-70
2022/05/09 03:54:45;;;;;;;142.18;11.27;;;;;;;;;;4965511;28;20039;-70
2022/05/09 03:57:13;;;;;;;122.05;13.48;;;;;;;;;;4965807;28;20041;-70
2022/05/09 03:59:39;;;;;;;41.22;12.80;;;;;;;;;;4965492;28;20038;-70
2022/05/09 04:02:04;;;;;;;104.50;13.98;;;;;;;;;;4965272;28;20439;-70
2022/05/09 04:04:29;;;;;;;63.33;14.93;;;;;;;;;;4964855;28;20030;-70
2022/05/09 04:06:55;;;;;;;26.73;13.40;;;;;;;;;;4947912;28;20119;-70
2022/05/09 04:09:20;;;;;;;84.68;14.70;;;;;;;;;;4965022;28;20039;-71
2022/05/09 04:11:47;;;;;;;24.73;14.27;;;;;;;;;;4964732;28;20440;-70
2022/05/09 04:14:13;;;;;;;102.25;14.25;;;;;;;;;;4964179;28;20085;-70
2022/05/09 04:16:51;;;;;;;28.20;13.45;;;;;;;;;;4964862;28;20046;-70
2022/05/09 04:19:18;;;;;;;33.30;15.73;;;;;;;;;;4931392;28;20043;-70
2022/05/09 04:21:44;;;;;;;22.33;15.35;;;;;;;;;;4964679;28;20039;-70
2022/05/09 04:24:10;;;;;;;86.30;13.93;;;;;;;;;;4963866;28;20045;-71
2022/05/09 04:26:35;;;;;;;109.85;13.60;;;;;;;;;;4964465;28;20035;-69
2022/05/09 04:29:01;;;;;;;20.00;13.63;;;;;;;;;;4964695;28;20051;-71
2022/05/09 04:31:28;;;;;;;21.42;14.30;;;;;;;;;;4964713;28;20108;-71
2022/05/09 04:33:55;;;;;;;31.67;15.55;;;;;;;;;;4963848;28;20030;-71
2022/05/09 04:36:22;;;;;;;35.47;16.13;;;;;;;;;;4964180;28;20054;-71
2022/05/09 04:38:50;;;;;;;68.57;16.27;;;;;;;;;;4931100;28;20050;-71
2022/05/09 04:41:17;;;;;;;48.38;15.32;;;;;;;;;;4965349;28;20141;-71
2022/05/09 04:43:42;;;;;;;34.28;16.27;;;;;;;;;;4963959;28;20031;-71
2022/05/09 04:46:08;;;;;;;65.97;16.33;;;;;;;;;;4963646;28;20406;-71
2022/05/09 04:48:34;;;;;;;39.42;16.90;;;;;;;;;;4964608;28;20220;-71
2022/05/09 04:51:00;;;;;;;35.58;16.27;;;;;;;;;;4964337;28;20045;-71
2022/05/09 04:53:26;;;;;;;28.85;15.90;;;;;;;;;;4964397;28;20026;-71
2022/05/09 04:55:55;;;;;;;39.20;16.45;;;;;;;;;;4964427;28;20134;-71
2022/05/09 04:58:20;;;;;;;33.92;17.15;;;;;;;;;;4963339;28;20039;-71
2022/05/09 05:00:47;;;;;;;49.88;17.38;;;;;;;;;;4964849;28;20404;-70
2022/05/09 05:03:12;;;;;;;27.42;17.55;;;;;;;;;;4963460;28;20141;-70
2022/05/09 05:05:39;;;;;;;31.63;18.25;;;;;;;;;;4964009;28;20030;-70
2022/05/09 05:08:05;;;;;;;43.55;18.77;;;;;;;;;;4964148;28;20605;-70
2022/05/09 05:10:30;;;;;;;62.85;18.42;;;;;;;;;;4963000;28;20039;-70
2022/05/09 05:12:58;;;;;;;40.28;18.30;;;;;;;;;;4963148;28;20053;-70
2022/05/09 05:15:25;;;;;;;72.43;19.23;;;;;;;;;;4964333;28;20030;-70
2022/05/09 05:17:51;;;;;;;77.22;17.80;;;;;;;;;;4964113;28;20437;-70
2022/05/09 05:20:17;;;;;;;41.55;18.90;;;;;;;;;;4963235;28;20559;-70
2022/05/09 05:22:47;;;;;;;34.38;18.05;;;;;;;;;;4963507;28;20038;-70
2022/05/09 05:25:14;;;;;;;36.13;18.67;;;;;;;;;;4947029;28;20153;-70
2022/05/09 05:27:40;;;;;;;36.65;17.73;;;;;;;;;;4963800;28;20030;-70
2022/05/09 05:30:09;;;;;;;35.70;16.85;;;;;;;;;;4963966;28;20050;-70
2022/05/09 05:32:37;;;;;;;28.45;18.08;;;;;;;;;;4963330;28;20400;-70
2022/05/09 05:35:08;;;;;;;29.08;15.60;;;;;;;;;;4963860;28;20440;-70
2022/05/09 05:37:34;;;;;;;;;;;;;;;;;;4964597;28;20035;-70
2022/05/09 05:40:04;;;;;;;28.38;15.52;;;;;;;;;;4946489;28;19925;-70
2022/05/09 05:42:30;;;;;;;29.45;15.07;;;;;;;;;;4963169;28;20035;-70
2022/05/09 05:44:55;;;;;;;21.55;15.13;;;;;;;;;;4964121;28;20033;-71
2022/05/09 05:47:22;;;;;;;31.02;14.23;;;;;;;;;;4963745;28;20042;-71
2022/05/09 05:49:48;;;;;;;30.63;15.48;;;;;;;;;;4962310;28;20039;-71
2022/05/09 05:52:16;;;;;;;21.10;15.05;;;;;;;;;;4960881;28;20027;-71
2022/05/09 05:54:43;;;;;;;20.00;14.40;;;;;;;;;;4961608;28;20690;-71
2022/05/09 05:57:27;;;;;;;19.13;14.57;;;;;;;;;;4961988;28;20053;-71
2022/05/09 05:59:58;;;;;;;28.60;16.23;;;;;;;;;;4943968;28;20034;-70
2022/05/09 06:02:25;;;;;;;30.00;16.67;;;;;;;;;;4961253;28;20027;-71
2022/05/09 06:04:51;;;;;;;28.17;18.13;;;;;;;;;;4962662;28;20043;-71
2022/05/09 06:07:17;;;;;;;27.13;17.25;;;;;;;;;;4963297;28;20033;-71
2022/05/09 06:09:44;;;;;;;23.80;16.90;;;;;;;;;;4963042;28;20484;-71
2022/05/09 06:12:11;;;;;;;24.48;16.83;;;;;;;;;;4962727;28;20050;-70
2022/05/09 06:14:38;;;;;;;170.10;19.33;;;;;;;;;;4963113;28;20222;-71
2022/05/09 06:17:05;;;;;;;94.75;17.00;;;;;;;;;;4962443;28;20133;-71
2022/05/09 06:19:30;;;;;;;52.03;15.73;;;;;;;;;;4962997;28;20112;-71
2022/05/09 06:21:56;;;;;;;21.70;14.40;;;;;;;;;;4962577;28;20117;-70
2022/05/09 06:24:21;;;;;;;34.63;15.25;;;;;;;;;;4963194;28;20047;-70
2022/05/09 06:26:48;;;;;;;24.05;15.77;;;;;;;;;;4962344;28;20038;-70
2022/05/09 06:29:14;;;;;;;30.02;15.10;;;;;;;;;;4945299;28;20046;-70
2022/05/09 06:31:39;;;;;;;23.92;15.10;;;;;;;;;;4963135;28;20038;-70
2022/05/09 06:34:06;;;;;;;106.32;17.83;;;;;;;;;;4962246;28;20035;-70
2022/05/09 06:36:36;;;;;;;38.30;16.13;;;;;;;;;;4962204;28;20050;-70
2022/05/09 06:39:03;;;;;;;20.77;14.88;;;;;;;;;;4958951;28;20805;-70
2022/05/09 06:41:28;;;;;;;46.25;14.40;;;;;;;;;;4961616;28;20042;-70
2022/05/09 06:43:54;;;;;;;17.38;14.27;;;;;;;;;;4962454;28;20860;-71
2022/05/09 06:46:19;;;;;;;50.85;14.57;;;;;;;;;;4962310;28;20050;-71
2022/05/09 06:48:45;;;;;;;18.70;14.20;;;;;;;;;;4961428;28;20034;-71
2022/05/09 06:51:12;;;;;;;17.38;13.77;;;;;;;;;;4961715;28;20034;-70
2022/05/09 06:53:38;;;;;;;20.80;15.25;;;;;;;;;;4961886;28;20031;-71
2022/05/09 06:56:04;;;;;;;24.02;15.82;;;;;;;;;;4962714;28;20081;-70
2022/05/09 06:58:31;;;;;;;21.83;16.98;;;;;;;;;;4961642;28;20467;-70
2022/05/09 07:00:57;;;;;;;21.20;16.10;;;;;;;;;;4961518;28;20109;-71
2022/05/09 07:03:23;;;;;;;23.33;16.85;;;;;;;;;;4962971;28;20137;-70
2022/05/09 07:05:51;;;;;;;20.80;15.70;;;;;;;;;;4960607;28;20538;-70
2022/05/09 07:08:19;;;;;;;20.92;15.98;;;;;;;;;;4942936;28;20619;-71
2022/05/09 07:10:46;;;;;;;24.75;16.52;;;;;;;;;;4959038;28;20035;-70
2022/05/09 07:13:11;;;;;;;23.20;16.73;;;;;;;;;;4960019;28;20061;-70
2022/05/09 07:15:37;;;;;;;24.52;18.35;;;;;;;;;;4962063;28;20030;-70
2022/05/09 07:18:04;;;;;;;21.83;16.77;;;;;;;;;;4944714;28;20650;-71
2022/05/09 07:20:32;;;;;;;21.67;16.83;;;;;;;;;;4960803;28;20050;-70
2022/05/09 07:23:10;;;;;;;20.67;15.23;;;;;;;;;;4957964;28;20133;-71
2022/05/09 07:25:37;;;;;;;24.30;17.15;;;;;;;;;;4961971;28;20058;-70
2022/05/09 07:28:03;;;;;;;20.67;14.70;;;;;;;;;;4962714;28;20047;-72
2022/05/09 07:30:29;;;;;;;19.58;14.65;;;;;;;;;;4965019;28;20026;-71
2022/05/09 07:32:55;;;;;;;16.27;13.35;;;;;;;;;;4964022;28;20436;-71
2022/05/09 07:35:22;;;;;;;16.60;13.45;;;;;;;;;;4965531;28;20027;-70
2022/05/09 07:37:47;;;;;;;18.80;14.85;;;;;;;;;;4965366;28;20035;-71
2022/05/09 07:40:15;;;;;;;17.48;13.15;;;;;;;;;;4947724;28;20849;-71
2022/05/09 07:42:42;;;;;;;16.73;12.52;;;;;;;;;;4964514;28;20415;-70
2022/05/09 07:45:09;;;;;;;16.77;12.18;;;;;;;;;;4964781;28;20153;-71
2022/05/09 07:47:35;;;;;;;17.88;12.73;;;;;;;;;;4965727;28;20035;-70
2022/05/09 07:50:01;;;;;;;16.60;13.40;;;;;;;;;;4964916;28;20042;-70
2022/05/09 07:52:26;;;;;;;17.20;13.45;;;;;;;;;;4965257;28;20077;-70
2022/05/09 07:54:52;;;;;;;17.10;13.60;;;;;;;;;;4964878;28;20088;-71
2022/05/09 07:57:17;;;;;;;17.00;13.25;;;;;;;;;;4962473;28;20476;-71
2022/05/09 07:59:42;;;;;;;19.33;14.15;;;;;;;;;;4965294;28;20036;-70
2022/05/09 08:02:08;;;;;;;16.60;14.32;;;;;;;;;;4964755;28;20041;-70
2022/05/09 08:04:34;;;;;;;19.60;13.73;;;;;;;;;;4964680;28;20077;-70
2022/05/09 08:07:01;;;;;;;18.90;12.65;;;;;;;;;;4965313;28;20031;-69
2022/05/09 08:09:27;;;;;;;15.48;12.73;;;;;;;;;;4965431;28;20039;-70
2022/05/09 08:11:53;;;;;;;14.40;12.25;;;;;;;;;;4964734;28;20045;-70
2022/05/09 08:14:19;;;;;;;14.23;12.23;;;;;;;;;;4964924;28;20092;-70
2022/05/09 08:16:44;;;;;;;15.25;12.57;;;;;;;;;;4964152;28;20518;-69
2022/05/09 08:19:11;;;;;;;17.92;12.70;;;;;;;;;;4964960;28;20042;-70
2022/05/09 08:21:38;;;;;;;15.98;11.65;;;;;;;;;;4964932;28;20066;-69
2022/05/09 08:24:08;;;;;;;13.10;11.68;;;;;;;;;;4964830;28;20049;-71
2022/05/09 08:26:34;;;;;;;23.60;11.88;;;;;;;;;;4964810;28;20304;-70
2022/05/09 08:29:00;;;;;;;14.48;10.90;;;;;;;;;;4964938;28;20168;-70
2022/05/09 08:31:26;;;;;;;14.05;11.25;;;;;;;;;;4964308;28;20976;-70
2022/05/09 08:33:53;;;;;;;12.48;11.05;;;;;;;;;;4964607;28;20050;-70
2022/05/09 08:39:05;;;;;;;15.85;12.70;;;;;;;;;;4963437;28;20043;-70
2022/05/09 08:41:44;;;;;;;15.30;12.43;;;;;;;;;;4964919;28;20043;-72
2022/05/09 08:44:10;;;;;;;13.77;11.30;;;;;;;;;;4964101;28;20042;-70
2022/05/09 08:46:58;;;;;;;16.13;11.27;;;;;;;;;;4964408;28;20057;-71
2022/05/09 08:49:50;;;;;;;17.17;11.32;;;;;;;;;;4964099;28;20093;-69
2022/05/09 08:52:26;;;;;;;16.08;9.88;;;;;;;;;;4964167;28;20325;-70
2022/05/09 08:54:53;;;;;;;12.45;9.52;;;;;;;;;;4964596;28;20037;-69
2022/05/09 08:57:42;;;;;;;12.57;9.77;;;;;;;;;;4964347;28;20400;-69
2022/05/09 09:00:15;;;;;;;10.38;8.48;;;;;;;;;;4963006;28;20681;-70
2022/05/09 09:02:44;;;;;;;10.85;8.75;;;;;;;;;;4963741;28;20105;-71
2022/05/09 09:05:12;;;;;;;10.05;7.93;;;;;;;;;;4964609;28;20959;-71
2022/05/09 09:07:48;;;;;;;8.20;7.35;;;;;;;;;;4963080;28;20035;-70
2022/05/09 09:10:24;;;;;;;9.55;8.55;;;;;;;;;;4963089;28;20161;-71
2022/05/09 09:13:08;;;;;;;10.68;8.13;;;;;;;;;;4963491;28;20038;-70
2022/05/09 09:16:03;;;;;;;11.35;7.88;;;;;;;;;;4964326;28;20070;-71
2022/05/09 09:18:51;;;;;;;8.88;7.90;;;;;;;;;;4938536;28;20484;-71
2022/05/09 09:21:40;;;;;;;9.27;8.05;;;;;;;;;;4962532;28;20487;-71
2022/05/09 09:24:06;;;;;;;11.63;8.63;;;;;;;;;;4946798;28;20049;-70
2022/05/09 09:27:00;;;;;;;10.27;8.52;;;;;;;;;;4964352;28;20030;-70
2022/05/09 09:29:39;;;;;;;11.70;8.55;;;;;;;;;;4961307;28;20043;-70
2022/05/09 09:32:09;;;;;;;12.50;8.85;;;;;;;;;;4963021;28;20221;-70
2022/05/09 09:34:46;;;;;;;10.55;7.88;;;;;;;;;;4963777;28;20109;-71
2022/05/09 09:37:31;;;;;;;9.30;8.40;;;;;;;;;;4964163;28;20086;-71
2022/05/09 09:39:57;;;;;;;13.43;8.93;;;;;;;;;;4947045;28;20053;-71
2022/05/09 09:42:23;;;;;;;8.88;7.30;;;;;;;;;;4946484;28;20043;-70
2022/05/09 09:44:49;;;;;;;9.27;7.78;;;;;;;;;;4963703;28;20042;-71
2022/05/09 09:47:21;;;;;;;9.35;8.38;;;;;;;;;;4963757;28;20086;-71
2022/05/09 09:49:49;;;;;;;9.65;8.43;;;;;;;;;;4963917;28;20038;-71
2022/05/09 09:52:38;;;;;;;10.93;8.07;;;;;;;;;;4963878;28;20031;-71
2022/05/09 09:55:13;;;;;;;9.57;6.80;;;;;;;;;;4963091;28;20118;-71
2022/05/09 09:57:38;;;;;;;9.48;7.10;;;;;;;;;;4964246;28;20472;-72
2022/05/09 10:00:25;;;;;;;10.25;6.65;;;;;;;;;;4962783;28;20046;-72
2022/05/09 10:02:52;;;;;;;6.93;5.20;;;;;;;;;;4962877;28;20070;-71
2022/05/09 10:05:32;;;;;;;7.43;5.30;;;;;;;;;;4962705;28;20476;-72
2022/05/09 10:07:58;;;;;;;6.72;5.40;;;;;;;;;;4962969;28;20066;-70
2022/05/09 10:10:26;;;;;;;6.00;5.40;;;;;;;;;;4956458;28;20034;-69
2022/05/09 10:12:57;;;;;;;6.18;5.05;;;;;;;;;;4962816;28;20078;-70
2022/05/09 10:15:22;;;;;;;5.43;4.93;;;;;;;;;;4962732;28;20039;-70
2022/05/09 10:17:48;;;;;;;6.93;5.00;;;;;;;;;;4962103;28;20050;-69
2022/05/09 10:20:27;;;;;;;8.82;4.97;;;;;;;;;;4962153;28;20046;-70
2022/05/09 10:26:04;;;;;;;7.18;5.00;;;;;;;;;;4962815;28;20503;-70
2022/05/09 10:28:34;;;;;;;5.90;5.03;;;;;;;;;;4961650;28;20064;-70
2022/05/09 10:31:16;;;;;;;9.80;5.47;;;;;;;;;;4961612;28;20073;-70
2022/05/09 10:33:41;;;;;;;;;;;;;;;;;;4963060;28;20101;-70
2022/05/09 10:36:19;;;;;;;5.75;5.15;;;;;;;;;;4962228;28;20462;-70
2022/05/09 10:38:54;;;;;;;9.10;6.88;;;;;;;;;;4960946;28;20042;-70
2022/05/09 10:41:21;;;;;;;10.57;6.65;;;;;;;;;;4960740;28;20420;-71
2022/05/09 10:43:55;;;;;;;6.68;6.00;;;;;;;;;;4962034;28;20027;-71
2022/05/09 10:46:29;;;;;;;7.82;5.95;;;;;;;;;;4962337;28;20059;-72
2022/05/09 10:49:05;;;;;;;5.95;5.35;;;;;;;;;;4962451;28;20042;-71
2022/05/09 10:51:42;;;;;;;7.22;6.40;;;;;;;;;;4962438;28;20404;-72
2022/05/09 10:54:14;;;;;;;10.85;6.90;;;;;;;;;;4962074;28;20039;-71
2022/05/09 10:56:46;;;;;;;7.38;5.88;;;;;;;;;;4962616;28;20038;-71
2022/05/09 10:59:25;;;;;;;5.72;5.07;;;;;;;;;;4962408;28;20042;-72
2022/05/09 11:02:00;;;;;;;6.50;5.78;;;;;;;;;;4961339;28;20046;-70
2022/05/09 11:04:26;;;;;;;6.72;6.13;;;;;;;;;;4961752;28;20057;-71
2022/05/09 11:06:51;;;;;;;8.32;5.85;;;;;;;;;;4945207;28;20042;-72
2022/05/09 11:09:26;;;;;;;6.50;5.72;;;;;;;;;;4945178;28;20456;-72
2022/05/09 11:12:13;;;;;;;8.48;5.18;;;;;;;;;;4961214;28;20125;-71
2022/05/09 11:15:05;;;;;;;7.10;5.28;;;;;;;;;;4962246;28;20030;-72
2022/05/09 11:17:48;;;;;;;7.55;4.95;;;;;;;;;;4962201;28;20471;-70
2022/05/09 11:20:28;;;;;;;6.88;5.32;;;;;;;;;;4961201;28;20055;-69
2022/05/09 11:23:23;;;;;;;6.70;5.25;;;;;;;;;;4944802;28;20043;-70
2022/05/09 11:26:13;;;;;;;6.40;5.60;;;;;;;;;;4962080;28;20045;-72
2022/05/09 11:29:06;;;;;;;5.13;4.68;;;;;;;;;;4944303;28;20726;-69
2022/05/09 11:31:57;;;;;;;9.35;4.70;;;;;;;;;;4962400;28;20045;-69
2022/05/09 11:34:34;;;;;;;8.38;5.65;;;;;;;;;;4960104;28;20069;-69
2022/05/09 11:37:25;;;;;;;8.02;5.07;;;;;;;;;;4961351;28;20039;-72
2022/05/09 11:40:21;;;;;;;9.18;4.85;;;;;;;;;;4961721;28;20508;-70
2022/05/09 11:45:52;;;;;;;12.80;5.78;;;;;;;;;;4960775;28;20041;-70
2022/05/09 11:48:25;;;;;;;4.93;4.43;;;;;;;;;;4961176;28;21140;-72
2022/05/09 11:50:50;;;;;;;5.65;4.53;;;;;;;;;;4961421;28;20385;-70
2022/05/09 11:53:20;;;;;;;9.60;5.18;;;;;;;;;;4961677;28;20041;-69
2022/05/09 11:55:48;;;;;;;4.70;4.25;;;;;;;;;;4961324;28;20077;-70
2022/05/09 11:58:15;;;;;;;6.47;4.60;;;;;;;;;;4961677;28;20053;-71
2022/05/09 12:00:41;;;;;;;7.15;4.53;;;;;;;;;;4960929;28;20050;-71
2022/05/09 12:03:13;;;;;;;6.70;4.60;;;;;;;;;;4961454;28;20047;-72
2022/05/09 12:05:38;;;;;;;5.97;4.53;;;;;;;;;;4944525;28;20138;-71
2022/05/09 12:08:12;;;;;;;6.25;3.92;;;;;;;;;;4960413;28;20372;-74
2022/05/09 12:10:40;;;;;;;5.38;4.80;;;;;;;;;;4961217;28;20045;-72
2022/05/09 12:13:24;;;;;;;6.55;4.50;;;;;;;;;;4961319;28;20042;-71
2022/05/09 12:15:56;;;;;;;6.28;4.90;;;;;;;;;;4964604;28;20046;-70
2022/05/09 12:18:32;;;;;;;4.70;4.30;;;;;;;;;;4964180;28;20039;-70
2022/05/09 12:21:17;;;;;;;7.60;4.20;;;;;;;;;;4964286;28;20050;-73
2022/05/09 12:23:44;;;;;;;5.57;4.28;;;;;;;;;;4964611;28;20472;-71
2022/05/09 12:26:31;;;;;;;5.35;4.60;;;;;;;;;;4931615;28;20042;-70
2022/05/09 12:29:19;;;;;;;5.43;4.82;;;;;;;;;;4963931;28;20042;-69
2022/05/09 12:31:54;;;;;;;5.60;4.38;;;;;;;;;;4964353;28;20388;-71
2022/05/09 12:34:37;;;;;;;6.05;4.38;;;;;;;;;;4964587;28;20034;-71
2022/05/09 12:37:04;;;;;;;4.40;4.00;;;;;;;;;;4964462;28;20042;-70
2022/05/09 12:39:33;;;;;;;6.57;4.00;;;;;;;;;;4963918;28;20063;-70
2022/05/09 12:42:02;;;;;;;5.68;3.90;;;;;;;;;;4964532;28;20041;-70
2022/05/09 12:44:43;;;;;;;5.50;4.00;;;;;;;;;;4964568;28;20102;-71
2022/05/09 12:47:35;;;;;;;5.75;3.83;;;;;;;;;;4963889;28;20034;-70
2022/05/09 12:50:06;;;;;;;5.20;4.03;;;;;;;;;;4926422;28;20065;-70
2022/05/09 12:52:36;;;;;;;5.20;3.60;;;;;;;;;;4962776;28;20026;-71
2022/05/09 12:57:55;;;;;;;4.07;3.50;;;;;;;;;;4962953;28;20661;-70
2022/05/09 13:00:26;;;;;;;6.18;4.00;;;;;;;;;;4959539;28;20129;-71
2022/05/09 13:02:51;;;;;;;8.23;5.03;;;;;;;;;;4962737;28;20492;-70
2022/05/09 13:05:30;;;;;;;5.22;4.63;;;;;;;;;;4963606;28;20034;-71
2022/05/09 13:08:00;;;;;;;7.25;4.88;;;;;;;;;;4964196;28;20069;-70
2022/05/09 13:10:28;;;;;;;11.55;4.90;;;;;;;;;;4964108;28;20035;-70
2022/05/09 13:13:05;;;;;;;5.00;4.25;;;;;;;;;;4962329;28;20046;-70
2022/05/09 13:15:31;;;;;;;6.90;3.95;;;;;;;;;;4964353;28;20035;-71
2022/05/09 13:18:00;;;;;;;6.22;4.40;;;;;;;;;;4966092;28;20122;-70
2022/05/09 13:20:29;;;;;;;8.13;4.45;;;;;;;;;;4968417;28;20039;-70
2022/05/09 13:23:03;;;;;;;6.03;4.18;;;;;;;;;;4964646;28;20094;-71
2022/05/09 13:25:36;;;;;;;5.15;3.28;;;;;;;;;;4962356;28;20035;-70
2022/05/09 13:28:11;;;;;;;5.75;3.60;;;;;;;;;;4963479;28;20524;-70
2022/05/09 13:30:43;;;;;;;8.77;3.65;;;;;;;;;;4945507;28;20039;-70
2022/05/09 13:33:15;;;;;;;9.55;3.65;;;;;;;;;;4946161;28;20038;-72
2022/05/09 13:35:46;;;;;;;5.45;4.38;;;;;;;;;;4962907;28;20026;-72
2022/05/09 13:38:34;;;;;;;4.45;3.35;;;;;;;;;;4963475;28;20073;-71
2022/05/09 13:41:04;;;;;;;5.20;3.20;;;;;;;;;;4963093;28;20058;-70
2022/05/09 13:43:33;;;;;;;5.68;3.90;;;;;;;;;;4960673;28;20042;-71
2022/05/09 13:46:04;;;;;;;4.57;3.35;;;;;;;;;;4962760;28;20094;-73
2022/05/09 13:48:30;;;;;;;4.80;3.50;;;;;;;;;;4963252;28;20092;-71
2022/05/09 13:50:55;;;;;;;3.90;3.60;;;;;;;;;;4963201;28;20049;-72
2022/05/09 13:53:27;;;;;;;3.75;3.45;;;;;;;;;;4963240;28;20038;-70
2022/05/09 13:55:58;;;;;;;4.93;3.58;;;;;;;;;;4963856;28;20472;-72
2022/05/09 13:58:26;;;;;;;5.95;3.97;;;;;;;;;;4954079;28;20039;-71
2022/05/09 14:00:53;;;;;;;5.20;3.60;;;;;;;;;;4945130;28;20307;-73
2022/05/09 14:03:24;;;;;;;4.03;3.63;;;;;;;;;;4962717;28;20034;-71
2022/05/09 14:05:54;;;;;;;4.25;3.35;;;;;;;;;;4963829;28;20404;-70
2022/05/09 14:08:20;;;;;;;5.10;3.22;;;;;;;;;;4962213;28;20031;-70
2022/05/09 14:10:49;;;;;;;3.65;3.30;;;;;;;;;;4963299;28;20084;-70
2022/05/09 14:13:46;;;;;;;3.60;3.30;;;;;;;;;;4963705;28;20480;-73
2022/05/09 14:16:29;;;;;;;3.45;3.00;;;;;;;;;;4964067;28;20062;-72
2022/05/09 14:19:03;;;;;;;3.88;3.13;;;;;;;;;;4962757;28;20121;-71
2022/05/09 14:21:41;;;;;;;8.68;3.72;;;;;;;;;;4962568;28;20026;-71
2022/05/09 14:24:09;;;;;;;10.55;3.78;;;;;;;;;;4963144;28;20054;-70
2022/05/09 14:29:38;;;;;;;4.57;3.67;;;;;;;;;;4963029;28;20130;-70
2022/05/09 14:32:06;;;;;;;5.45;4.50;;;;;;;;;;4962170;28;20412;-72
2022/05/09 14:35:00;;;;;;;6.38;4.10;;;;;;;;;;4962491;28;20480;-73
2022/05/09 14:37:28;;;;;;;6.63;4.30;;;;;;;;;;4963487;28;20049;-73
2022/05/09 14:40:05;;;;;;;4.70;3.72;;;;;;;;;;4962140;28;20038;-73
2022/05/09 14:42:46;;;;;;;10.73;4.68;;;;;;;;;;4944351;28;20097;-71
2022/05/09 14:45:17;;;;;;;5.63;4.25;;;;;;;;;;4961770;28;20230;-73
2022/05/09 14:47:51;;;;;;;5.45;4.57;;;;;;;;;;4959420;28;20035;-70
2022/05/09 14:50:36;;;;;;;7.97;4.70;;;;;;;;;;4961002;28;20088;-71
2022/05/09 14:53:23;;;;;;;4.72;4.30;;;;;;;;;;4961943;28;20049;-70
2022/05/09 14:58:47;;;;;;;8.18;4.03;;;;;;;;;;4962659;28;20083;-70
2022/05/09 15:01:18;;;;;;;5.15;3.78;;;;;;;;;;4962136;28;20531;-70
2022/05/09 15:03:47;;;;;;;4.05;3.72;;;;;;;;;;4961159;28;20096;-70
2022/05/09 15:06:13;;;;;;;4.13;3.78;;;;;;;;;;4961404;28;20050;-70